createdAt,value
2019-05-12T00:02:04.502Z,100997.50
2019-05-12T00:04:31.535Z,100998.14
2019-05-12T00:06:58.703Z,101004.73
2019-05-12T00:09:28.211Z,101013.73
2019-05-12T00:11:59.033Z,101008.00
2019-05-12T00:14:28.140Z,101012.21
2019-05-12T00:16:55.414Z,101015.88
2019-05-12T00:19:22.475Z,101009.56
2019-05-12T00:21:49.667Z,101013.69
2019-05-12T00:24:18.739Z,101013.33
2019-05-12T00:26:47.601Z,101021.03
2019-05-12T00:29:14.642Z,101022.00
2019-05-12T00:31:42.230Z,101031.21
2019-05-12T00:34:09.302Z,101033.78
2019-05-12T00:36:37.966Z,101036.16
2019-05-12T00:39:08.555Z,101044.04
2019-05-12T00:41:35.542Z,101037.04
2019-05-12T00:44:02.614Z,101041.15
2019-05-12T00:46:29.702Z,101041.17
2019-05-12T00:48:58.543Z,101046.49
2019-05-12T00:51:25.670Z,101043.53
2019-05-12T00:53:52.720Z,101042.78
2019-05-12T00:56:19.780Z,101050.73
2019-05-12T00:58:48.777Z,101049.91
2019-05-12T01:01:18.265Z,101046.89
2019-05-12T01:03:44.817Z,101060.41
2019-05-12T01:06:11.855Z,101068.94
2019-05-12T01:08:40.403Z,101075.16
2019-05-12T01:11:08.785Z,101078.74
2019-05-12T01:13:38.116Z,101086.27
2019-05-12T01:16:05.095Z,101091.77
2019-05-12T01:18:32.349Z,101098.88
2019-05-12T01:20:59.591Z,101104.48
2019-05-12T01:23:28.089Z,101109.47
2019-05-12T01:25:58.286Z,101115.20
2019-05-12T01:28:27.817Z,101118.19
2019-05-12T01:30:58.217Z,101120.84
2019-05-12T01:33:27.522Z,101128.15
2019-05-12T01:35:54.289Z,101134.74
2019-05-12T01:38:21.349Z,101138.52
2019-05-12T01:40:48.402Z,101131.16
2019-05-12T01:43:15.543Z,101137.52
2019-05-12T01:45:42.596Z,101131.92
2019-05-12T01:48:09.653Z,101132.36
2019-05-12T01:50:38.659Z,101132.97
2019-05-12T01:53:08.178Z,101132.28
2019-05-12T01:55:34.876Z,101145.27
2019-05-12T01:58:01.954Z,101151.77
2019-05-12T02:00:29.330Z,101159.22
2019-05-12T02:02:58.588Z,101155.35
2019-05-12T02:05:27.958Z,101158.09
2019-05-12T02:07:58.449Z,101160.72
2019-05-12T02:10:25.193Z,101162.00
2019-05-12T02:12:52.258Z,101153.84
2019-05-12T02:15:19.894Z,101169.88
2019-05-12T02:17:48.191Z,101174.17
2019-05-12T02:20:18.042Z,101170.47
2019-05-12T02:22:47.586Z,101179.59
2019-05-12T02:25:14.928Z,101181.86
2019-05-12T02:27:41.967Z,101192.27
2019-05-12T02:30:10.247Z,101197.65
2019-05-12T02:32:48.713Z,101210.08
2019-05-12T02:35:07.352Z,101205.47
2019-05-12T02:37:35.708Z,101213.05
2019-05-12T02:40:05.303Z,101214.78
2019-05-12T02:42:34.894Z,101218.80
2019-05-12T02:45:05.243Z,101220.15
2019-05-12T02:47:30.737Z,101219.73
2019-05-12T02:49:59.283Z,101227.21
2019-05-12T02:52:26.303Z,101225.63
2019-05-12T02:54:59.785Z,101232.63
2019-05-12T02:57:25.555Z,101232.43
2019-05-12T02:59:56.736Z,101233.87
2019-05-12T03:02:26.306Z,101245.38
2019-05-12T03:04:54.997Z,101241.72
2019-05-12T03:07:25.621Z,101242.66
2019-05-12T03:09:55.101Z,101243.36
2019-05-12T03:12:25.285Z,101249.53
2019-05-12T03:14:54.260Z,101246.59
2019-05-12T03:17:20.281Z,101242.38
2019-05-12T03:19:47.315Z,101256.19
2019-05-12T03:22:14.364Z,101259.64
2019-05-12T03:24:44.704Z,101263.39
2019-05-12T03:27:17.207Z,101269.20
2019-05-12T03:29:40.483Z,101277.87
2019-05-12T03:32:08.749Z,101279.58
2019-05-12T03:34:38.274Z,101283.14
2019-05-12T03:37:07.830Z,101292.98
2019-05-12T03:39:36.061Z,101295.41
2019-05-12T03:42:05.180Z,101309.67
2019-05-12T03:44:35.023Z,101316.55
2019-05-12T03:47:01.121Z,101323.48
2019-05-12T03:49:28.118Z,101329.78
2019-05-12T03:51:55.176Z,101336.08
2019-05-12T03:54:24.345Z,101350.03
2019-05-12T03:56:51.229Z,101351.40
2019-05-12T03:59:18.270Z,101352.61
2019-05-12T04:01:45.512Z,101353.52
2019-05-12T04:04:15.330Z,101361.45
2019-05-12T04:06:45.294Z,101357.09
2019-05-12T04:09:15.454Z,101361.90
2019-05-12T04:11:44.531Z,101358.44
2019-05-12T04:14:14.609Z,101367.05
2019-05-12T04:16:41.200Z,101360.38
2019-05-12T04:19:08.223Z,101372.52
2019-05-12T04:21:35.660Z,101382.77
2019-05-12T04:24:05.502Z,101390.69
2019-05-12T04:26:35.801Z,101393.24
2019-05-12T04:29:00.846Z,101393.22
2019-05-12T04:31:27.879Z,101400.63
2019-05-12T04:33:55.722Z,101402.59
2019-05-12T04:36:24.863Z,101410.04
2019-05-12T04:38:55.266Z,101406.37
2019-05-12T04:41:20.650Z,101414.42
2019-05-12T04:43:48.684Z,101415.19
2019-05-12T04:46:15.733Z,101419.06
2019-05-12T04:48:45.324Z,101428.50
2019-05-12T04:51:15.367Z,101437.01
2019-05-12T04:53:44.852Z,101439.16
2019-05-12T04:56:19.239Z,101445.11
2019-05-12T04:58:45.020Z,101442.11
2019-05-12T05:01:15.462Z,101450.06
2019-05-12T05:03:45.465Z,101456.65
2019-05-12T05:06:14.920Z,101459.94
2019-05-12T05:08:44.293Z,101462.35
2019-05-12T05:11:14.559Z,101467.36
2019-05-12T05:13:40.741Z,101470.00
2019-05-12T05:16:07.796Z,101476.16
2019-05-12T05:18:34.865Z,101487.56
2019-05-12T05:21:04.661Z,101487.63
2019-05-12T05:23:33.491Z,101496.29
2019-05-12T05:26:03.267Z,101505.97
2019-05-12T05:28:33.979Z,101507.47
2019-05-12T05:31:03.490Z,101515.34
2019-05-12T05:33:30.742Z,101513.91
2019-05-12T05:35:57.778Z,101520.53
2019-05-12T05:38:24.935Z,101520.97
2019-05-12T05:40:53.990Z,101524.48
2019-05-12T05:43:24.173Z,101536.90
2019-05-12T05:45:54.537Z,101534.21
2019-05-12T05:48:20.343Z,101542.20
2019-05-12T05:50:47.384Z,101542.49
2019-05-12T05:53:19.561Z,101550.48
2019-05-12T05:55:44.222Z,101548.13
2019-05-12T05:58:15.421Z,101556.10
2019-05-12T06:00:43.468Z,101555.33
2019-05-12T06:03:17.009Z,101562.69
2019-05-12T06:05:39.591Z,101564.91
2019-05-12T06:08:09.624Z,101568.98
2019-05-12T06:10:40.523Z,101574.27
2019-05-12T06:13:07.711Z,101575.05
2019-05-12T06:15:40.704Z,101580.79
2019-05-12T06:18:08.396Z,101581.03
2019-05-12T06:20:38.050Z,101583.06
2019-05-12T06:23:05.700Z,101581.34
2019-05-12T06:25:46.030Z,101592.11
2019-05-12T06:28:08.874Z,101589.48
2019-05-12T06:30:44.317Z,101599.77
2019-05-12T06:33:06.738Z,101607.72
2019-05-12T06:35:42.125Z,101609.55
2019-05-12T06:38:08.293Z,101609.64
2019-05-12T06:40:41.022Z,101615.80
2019-05-12T06:43:04.945Z,101618.29
2019-05-12T06:45:34.008Z,101629.48
2019-05-12T06:48:03.255Z,101626.84
2019-05-12T06:50:36.975Z,101631.31
2019-05-12T06:53:05.254Z,101632.20
2019-05-12T06:55:34.437Z,101630.22
2019-05-12T06:58:04.462Z,101637.16
2019-05-12T07:00:32.652Z,101640.23
2019-05-12T07:03:03.932Z,101640.64
2019-05-12T07:05:40.807Z,101647.23
2019-05-12T07:08:08.988Z,101647.40
2019-05-12T07:10:43.403Z,101645.04
2019-05-12T07:13:08.747Z,101658.39
2019-05-12T07:15:40.561Z,101657.13
2019-05-12T07:18:13.713Z,101663.66
2019-05-12T07:20:43.587Z,101655.84
2019-05-12T07:23:10.775Z,101659.31
2019-05-12T07:25:37.868Z,101665.97
2019-05-12T07:28:07.926Z,101667.07
2019-05-12T07:30:36.137Z,101673.78
2019-05-12T07:33:04.876Z,101677.17
2019-05-12T07:35:33.949Z,101685.25
2019-05-12T07:38:04.275Z,101679.62
2019-05-12T07:40:38.919Z,101681.12
2019-05-12T07:43:16.361Z,101682.89
2019-05-12T07:45:56.567Z,101683.70
2019-05-12T07:48:18.012Z,101673.30
2019-05-12T07:50:50.307Z,101691.34
2019-05-12T07:53:17.884Z,101690.87
2019-05-12T07:56:03.960Z,101690.08
2019-05-12T07:58:33.620Z,101688.09
2019-05-12T08:01:02.949Z,101702.63
2019-05-12T08:03:30.800Z,101701.98
2019-05-12T08:06:04.484Z,101702.13
2019-05-12T08:08:35.643Z,101705.91
2019-05-12T08:11:04.377Z,101714.72
2019-05-12T08:13:56.933Z,101707.34
2019-05-12T08:16:38.577Z,101704.15
2019-05-12T08:19:08.547Z,101711.66
2019-05-12T08:21:43.555Z,101707.40
2019-05-12T08:24:04.870Z,101717.38
2019-05-12T08:26:34.921Z,101704.82
2019-05-12T08:29:04.472Z,101712.47
2019-05-12T08:31:38.512Z,101731.53
2019-05-12T08:34:01.015Z,101725.40
2019-05-12T08:36:30.792Z,101720.45
2019-05-12T08:38:57.948Z,101735.48
2019-05-12T08:41:25.546Z,101741.30
2019-05-12T08:43:58.142Z,101741.20
2019-05-12T08:46:24.295Z,101739.27
2019-05-12T08:48:57.977Z,101728.13
2019-05-12T08:51:20.731Z,101731.48
2019-05-12T08:53:47.833Z,101736.14
2019-05-12T08:56:19.363Z,101746.27
2019-05-12T08:58:50.928Z,101748.36
2019-05-12T09:01:14.396Z,101753.84
2019-05-12T09:03:44.269Z,101753.48
2019-05-12T09:06:15.510Z,101751.25
2019-05-12T09:08:44.891Z,101755.30
2019-05-12T09:11:14.400Z,101757.59
2019-05-12T09:13:44.064Z,101748.30
2019-05-12T09:16:19.293Z,101759.96
2019-05-12T09:18:46.476Z,101769.50
2019-05-12T09:21:14.226Z,101754.33
2019-05-12T09:23:44.980Z,101757.80
2019-05-12T09:26:10.745Z,101747.94
2019-05-12T09:28:49.250Z,101772.57
2019-05-12T09:31:14.136Z,101764.44
2019-05-12T09:33:44.679Z,101757.58
2019-05-12T09:36:19.792Z,101762.23
2019-05-12T09:38:41.151Z,101760.02
2019-05-12T09:41:08.363Z,101755.33
2019-05-12T09:43:40.135Z,101757.27
2019-05-12T09:46:04.628Z,101770.45
2019-05-12T09:48:52.079Z,101768.34
2019-05-12T09:51:40.671Z,101760.67
2019-05-12T09:54:02.205Z,101756.92
2019-05-12T09:56:29.496Z,101763.45
2019-05-12T09:59:01.571Z,101763.23
2019-05-12T10:01:29.413Z,101760.05
2019-05-12T10:04:03.304Z,101775.77
2019-05-12T10:06:41.297Z,101774.27
2019-05-12T10:09:19.823Z,101773.89
2019-05-12T10:11:44.855Z,101775.38
2019-05-12T10:14:15.098Z,101770.30
2019-05-12T10:16:45.671Z,101772.17
2019-05-12T10:19:14.416Z,101780.98
2019-05-12T10:21:43.852Z,101779.98
2019-05-12T10:24:10.886Z,101783.39
2019-05-12T10:26:41.190Z,101781.70
2019-05-12T10:29:17.520Z,101778.98
2019-05-12T10:31:39.403Z,101789.88
2019-05-12T10:34:20.504Z,101782.75
2019-05-12T10:36:54.169Z,101780.00
2019-05-12T10:39:21.316Z,101781.21
2019-05-12T10:41:48.606Z,101781.36
2019-05-12T10:44:15.799Z,101784.27
2019-05-12T10:46:43.864Z,101792.04
2019-05-12T10:49:13.937Z,101795.68
2019-05-12T10:51:43.623Z,101796.03
2019-05-12T10:54:13.146Z,101792.55
2019-05-12T10:56:39.219Z,101785.84
2019-05-12T10:59:06.439Z,101784.82
2019-05-12T11:01:38.367Z,101777.84
2019-05-12T11:04:03.934Z,101782.11
2019-05-12T11:06:31.173Z,101787.03
2019-05-12T11:08:58.277Z,101776.13
2019-05-12T11:11:33.020Z,101786.66
2019-05-12T11:13:56.884Z,101783.36
2019-05-12T11:16:31.137Z,101771.30
2019-05-12T11:18:54.226Z,101784.93
2019-05-12T11:21:22.465Z,101778.39
2019-05-12T11:23:50.743Z,101782.20
2019-05-12T11:26:18.804Z,101792.84
2019-05-12T11:28:45.878Z,101784.78
2019-05-12T11:31:13.633Z,101784.27
2019-05-12T11:33:40.892Z,101784.92
2019-05-12T11:36:08.287Z,101784.45
2019-05-12T11:38:38.611Z,101790.18
2019-05-12T11:41:10.174Z,101790.89
2019-05-12T11:43:34.618Z,101794.85
2019-05-12T11:46:01.994Z,101790.25
2019-05-12T11:48:29.091Z,101787.91
2019-05-12T11:50:56.125Z,101788.12
2019-05-12T11:53:30.247Z,101791.16
2019-05-12T11:55:54.322Z,101789.28
2019-05-12T11:58:23.453Z,101800.50
2019-05-12T12:00:53.346Z,101790.63
2019-05-12T12:03:20.558Z,101794.02
2019-05-12T12:05:47.639Z,101787.14
2019-05-12T12:08:14.745Z,101782.80
2019-05-12T12:10:42.120Z,101792.52
2019-05-12T12:13:09.292Z,101799.11
2019-05-12T12:15:36.490Z,101795.70
2019-05-12T12:18:12.967Z,101788.78
2019-05-12T12:20:36.595Z,101798.43
2019-05-12T12:23:11.097Z,101787.96
2019-05-12T12:25:34.214Z,101789.92
2019-05-12T12:28:01.597Z,101781.13
2019-05-12T12:30:28.742Z,101780.29
2019-05-12T12:33:00.285Z,101777.03
2019-05-12T12:35:26.857Z,101783.72
2019-05-12T12:37:54.241Z,101790.11
2019-05-12T12:40:23.091Z,101792.80
2019-05-12T12:42:50.155Z,101801.95
2019-05-12T12:45:30.463Z,101787.50
2019-05-12T12:47:58.134Z,101794.45
2019-05-12T12:50:28.555Z,101785.37
2019-05-12T12:52:54.208Z,101794.61
2019-05-12T12:55:23.319Z,101795.38
2019-05-12T12:57:50.842Z,101786.83
2019-05-12T13:00:29.873Z,101784.81
2019-05-12T13:03:00.138Z,101795.00
2019-05-12T13:05:34.553Z,101803.34
2019-05-12T13:08:04.089Z,101788.19
2019-05-12T13:10:30.734Z,101785.56
2019-05-12T13:13:01.122Z,101782.92
2019-05-12T13:15:28.390Z,101779.63
2019-05-12T13:17:55.468Z,101781.38
2019-05-12T13:20:24.331Z,101788.73
2019-05-12T13:22:53.516Z,101787.03
2019-05-12T13:25:26.349Z,101779.36
2019-05-12T13:27:53.551Z,101778.49
2019-05-12T13:30:24.340Z,101784.27
2019-05-12T13:32:51.519Z,101781.97
2019-05-12T13:35:20.169Z,101787.73
2019-05-12T13:37:58.440Z,101788.98
2019-05-12T13:41:23.223Z,101786.66
2019-05-12T13:44:20.786Z,101784.20
2019-05-12T13:46:54.725Z,101780.03
2019-05-12T13:49:20.591Z,101780.57
2019-05-12T13:51:48.862Z,101770.12
2019-05-12T13:54:20.170Z,101769.42
2019-05-12T13:56:45.818Z,101766.92
2019-05-12T13:59:20.760Z,101774.58
2019-05-12T14:01:46.847Z,101765.81
2019-05-12T14:04:22.164Z,101776.95
2019-05-12T14:06:48.708Z,101779.82
2019-05-12T14:09:16.106Z,101771.16
2019-05-12T14:11:43.669Z,101763.20
2019-05-12T14:14:15.401Z,101767.45
2019-05-12T14:16:44.679Z,101761.34
2019-05-12T14:19:11.521Z,101757.34
2019-05-12T14:21:41.528Z,101773.92
2019-05-12T14:24:13.726Z,101760.43
2019-05-12T14:26:47.582Z,101769.78
2019-05-12T14:29:10.327Z,101768.75
2019-05-12T14:31:45.402Z,101760.25
2019-05-12T14:34:10.401Z,101758.85
2019-05-12T14:36:37.686Z,101760.69
2019-05-12T14:39:10.289Z,101763.61
2019-05-12T14:41:44.487Z,101756.97
2019-05-12T14:44:13.749Z,101758.69
2019-05-12T14:46:46.250Z,101764.29
2019-05-12T14:49:14.025Z,101761.97
2019-05-12T14:51:41.136Z,101761.40
2019-05-12T14:54:08.632Z,101761.00
2019-05-12T14:56:53.029Z,101760.81
2019-05-12T14:59:16.086Z,101754.69
2019-05-12T15:01:57.441Z,101763.75
2019-05-12T15:04:27.982Z,101772.20
2019-05-12T15:06:50.375Z,101765.61
2019-05-12T15:09:21.791Z,101763.40
2019-05-12T15:11:47.852Z,101771.37
2019-05-12T15:14:14.916Z,101765.32
2019-05-12T15:16:44.691Z,101771.71
2019-05-12T15:19:14.619Z,101772.66
2019-05-12T15:21:43.680Z,101774.02
2019-05-12T15:24:15.449Z,101773.40
2019-05-12T15:26:43.540Z,101784.36
2019-05-12T15:29:13.287Z,101783.18
2019-05-12T15:31:52.761Z,101783.05
2019-05-12T15:34:14.402Z,101777.19
2019-05-12T15:36:43.682Z,101774.88
2019-05-12T15:39:10.852Z,101775.34
2019-05-12T15:41:38.073Z,101777.16
2019-05-12T15:44:06.615Z,101792.74
2019-05-12T15:46:41.016Z,101789.11
2019-05-12T15:49:03.674Z,101796.36
2019-05-12T15:51:35.066Z,101797.55
2019-05-12T15:54:06.576Z,101797.17
2019-05-12T15:56:32.314Z,101803.91
2019-05-12T15:59:01.113Z,101793.55
2019-05-12T16:01:35.941Z,101797.86
2019-05-12T16:04:03.772Z,101795.20
2019-05-12T16:06:31.179Z,101801.80
2019-05-12T16:08:58.517Z,101804.00
2019-05-12T16:11:25.972Z,101813.36
2019-05-12T16:14:03.848Z,101811.23
2019-05-12T16:16:36.408Z,101813.66
2019-05-12T16:19:01.272Z,101805.61
2019-05-12T16:21:28.882Z,101812.36
2019-05-12T16:24:04.886Z,101813.09
2019-05-12T16:26:33.540Z,101816.29
2019-05-12T16:29:05.862Z,101813.80
2019-05-12T16:31:33.932Z,101813.66
2019-05-12T16:34:05.903Z,101814.50
2019-05-12T16:36:33.607Z,101818.17
2019-05-12T16:39:07.661Z,101826.25
2019-05-12T16:41:34.876Z,101828.48
2019-05-12T16:44:07.848Z,101822.98
2019-05-12T16:46:31.061Z,101826.97
2019-05-12T16:49:03.346Z,101830.05
2019-05-12T16:51:33.283Z,101827.44
2019-05-12T16:54:06.936Z,101833.96
2019-05-12T16:56:34.496Z,101835.32
2019-05-12T16:59:07.248Z,101843.80
2019-05-12T17:01:33.464Z,101843.50
2019-05-12T17:04:00.668Z,101841.34
2019-05-12T17:06:34.936Z,101837.05
2019-05-12T17:09:03.213Z,101835.24
2019-05-12T17:11:37.452Z,101840.79
2019-05-12T17:14:05.090Z,101839.41
2019-05-12T17:16:42.104Z,101846.23
2019-05-12T17:19:10.628Z,101844.75
2019-05-12T17:21:44.096Z,101852.61
2019-05-12T17:24:16.876Z,101855.25
2019-05-12T17:26:47.189Z,101848.34
2019-05-12T17:29:14.430Z,101853.56
2019-05-12T17:31:45.137Z,101854.11
2019-05-12T17:34:14.256Z,101855.22
2019-05-12T17:36:41.720Z,101852.84
2019-05-12T17:39:13.856Z,101857.66
2019-05-12T17:41:46.179Z,101861.13
2019-05-12T17:44:13.679Z,101864.38
2019-05-12T17:46:46.537Z,101873.61
2019-05-12T17:49:25.352Z,101871.36
2019-05-12T17:51:47.915Z,101873.13
2019-05-12T17:54:21.529Z,101878.86
2019-05-12T17:56:45.526Z,101892.05
2019-05-12T17:59:27.605Z,101891.10
2019-05-12T18:01:46.511Z,101890.55
2019-05-12T18:04:14.067Z,101898.99
2019-05-12T18:06:44.137Z,101898.55
2019-05-12T18:09:15.835Z,101898.80
2019-05-12T18:11:40.971Z,101900.75
2019-05-12T18:14:09.468Z,101911.51
2019-05-12T18:16:36.585Z,101909.73
2019-05-12T18:19:08.908Z,101911.55
2019-05-12T18:21:34.730Z,101915.21
2019-05-12T18:24:08.887Z,101922.38
2019-05-12T18:26:33.828Z,101917.02
2019-05-12T18:29:15.909Z,101920.75
2019-05-12T18:31:53.419Z,101923.73
2019-05-12T18:34:21.185Z,101930.88
2019-05-12T18:36:54.814Z,101928.56
2019-05-12T18:39:17.279Z,101934.30
2019-05-12T18:41:44.601Z,101938.20
2019-05-12T18:44:25.271Z,101945.22
2019-05-12T18:46:49.460Z,101944.85
2019-05-12T18:49:16.816Z,101942.84
2019-05-12T18:51:49.166Z,101940.56
2019-05-12T18:54:15.612Z,101946.22
2019-05-12T18:56:52.488Z,101953.21
2019-05-12T18:59:18.778Z,101949.77
2019-05-12T19:01:45.967Z,101955.33
2019-05-12T19:04:14.340Z,101958.89
2019-05-12T19:06:43.801Z,101961.65
2019-05-12T19:09:15.183Z,101966.55
2019-05-12T19:11:46.441Z,101970.08
2019-05-12T19:14:13.502Z,101983.55
2019-05-12T19:16:40.448Z,101978.50
2019-05-12T19:19:09.711Z,101984.66
2019-05-12T19:21:39.789Z,101991.34
2019-05-12T19:24:17.523Z,101994.62
2019-05-12T19:26:40.478Z,101997.88
2019-05-12T19:29:08.569Z,102004.73
2019-05-12T19:31:36.680Z,102010.31
2019-05-12T19:34:18.765Z,102013.64
2019-05-12T19:36:45.063Z,102016.61
2019-05-12T19:39:11.492Z,102029.36
2019-05-12T19:41:38.666Z,102027.40
2019-05-12T19:44:05.755Z,102026.39
2019-05-12T19:46:34.196Z,102028.92
2019-05-12T19:49:04.438Z,102031.89
2019-05-12T19:51:31.972Z,102036.09
2019-05-12T19:53:59.222Z,102037.13
2019-05-12T19:56:34.525Z,102040.77
2019-05-12T19:58:57.308Z,102042.09
2019-05-12T20:01:32.356Z,102038.54
2019-05-12T20:04:03.568Z,102034.16
2019-05-12T20:06:39.065Z,102039.16
2019-05-12T20:09:10.923Z,102048.52
2019-05-12T20:11:39.573Z,102046.46
2019-05-12T20:14:10.041Z,102048.58
2019-05-12T20:16:37.036Z,102046.80
2019-05-12T20:19:04.490Z,102051.91
2019-05-12T20:21:34.019Z,102059.05
2019-05-12T20:24:03.696Z,102053.63
2019-05-12T20:26:33.274Z,102050.06
2019-05-12T20:29:00.234Z,102057.59
2019-05-12T20:31:27.672Z,102058.52
2019-05-12T20:34:03.433Z,102059.05
2019-05-12T20:36:27.735Z,102064.05
2019-05-12T20:38:55.013Z,102070.26
2019-05-12T20:41:26.570Z,102070.91
2019-05-12T20:43:52.733Z,102070.72
2019-05-12T20:46:24.285Z,102072.58
2019-05-12T20:48:48.908Z,102074.26
2019-05-12T20:51:20.054Z,102074.70
2019-05-12T20:53:45.068Z,102074.92
2019-05-12T20:56:18.503Z,102077.21
2019-05-12T20:58:44.296Z,102076.06
2019-05-12T21:01:10.295Z,102078.00
2019-05-12T21:03:39.861Z,102082.83
2019-05-12T21:06:09.004Z,102082.52
2019-05-12T21:08:36.104Z,102081.09
2019-05-12T21:11:03.171Z,102091.64
2019-05-12T21:13:31.895Z,102095.69
2019-05-12T21:15:59.413Z,102093.11
2019-05-12T21:18:26.714Z,102093.43
2019-05-12T21:20:56.716Z,102098.05
2019-05-12T21:23:24.270Z,102100.98
2019-05-12T21:25:55.963Z,102098.03
2019-05-12T21:28:23.858Z,102094.96
2019-05-12T21:30:53.142Z,102099.83
2019-05-12T21:33:19.921Z,102099.62
2019-05-12T21:35:47.205Z,102100.30
2019-05-12T21:38:25.165Z,102102.45
2019-05-12T21:40:51.182Z,102106.84
2019-05-12T21:43:20.495Z,102108.65
2019-05-12T21:45:47.591Z,102108.59
2019-05-12T21:48:23.686Z,102110.08
2019-05-12T21:50:46.138Z,102111.94
2019-05-12T21:53:20.597Z,102109.83
2019-05-12T21:55:46.897Z,102110.98
2019-05-12T21:58:15.259Z,102116.92
2019-05-12T22:00:50.548Z,102116.67
2019-05-12T22:03:18.903Z,102111.77
2019-05-12T22:05:51.354Z,102116.88
2019-05-12T22:08:22.199Z,102115.94
2019-05-12T22:10:47.489Z,102119.20
2019-05-12T22:13:17.972Z,102119.70
2019-05-12T22:15:44.691Z,102124.25
2019-05-12T22:18:13.079Z,102125.97
2019-05-12T22:20:40.153Z,102130.02
2019-05-12T22:23:11.952Z,102132.73
2019-05-12T22:25:36.192Z,102129.86
2019-05-12T22:28:07.859Z,102128.52
2019-05-12T22:30:34.866Z,102129.70
2019-05-12T22:33:05.938Z,102132.31
2019-05-12T22:35:30.840Z,102132.16
2019-05-12T22:37:57.880Z,102126.88
2019-05-12T22:40:24.997Z,102129.41
2019-05-12T22:42:57.060Z,102139.05
2019-05-12T22:45:23.985Z,102138.72
2019-05-12T22:47:55.322Z,102138.89
2019-05-12T22:50:22.075Z,102143.50
2019-05-12T22:52:49.561Z,102147.58
2019-05-12T22:55:21.308Z,102140.98
2019-05-12T22:57:46.123Z,102147.56
2019-05-12T23:00:19.220Z,102151.66
2019-05-12T23:02:44.849Z,102144.98
2019-05-12T23:05:18.521Z,102144.65
2019-05-12T23:07:43.959Z,102149.47
2019-05-12T23:10:14.055Z,102151.91
2019-05-12T23:12:40.148Z,102148.08
2019-05-12T23:15:07.777Z,102147.95
2019-05-12T23:17:38.961Z,102147.05
2019-05-12T23:20:04.990Z,102145.23
2019-05-12T23:22:34.998Z,102151.25
2019-05-12T23:25:03.825Z,102154.83
2019-05-12T23:27:30.174Z,102154.06
2019-05-12T23:30:01.429Z,102151.52
2019-05-12T23:32:26.221Z,102155.42
2019-05-12T23:34:58.403Z,102152.58
2019-05-12T23:37:24.400Z,102147.33
2019-05-12T23:39:53.731Z,102152.30
2019-05-12T23:42:20.975Z,102145.98
2019-05-12T23:44:49.121Z,102150.36
2019-05-12T23:47:16.354Z,102144.90
2019-05-12T23:49:44.397Z,102146.94
2019-05-12T23:52:14.032Z,102153.29
2019-05-12T23:54:41.038Z,102153.47
2019-05-12T23:57:12.934Z,102158.45
2019-05-12T23:59:39.159Z,102161.18
